Time;durP1;ratioP1;P1;durP2;ratioP2;P2;SDS_P1;SDS_P2;PMS_P1;PMS_P2;Temp;Humidity;BMP_temperature;BMP_pressure;BME280_temperature;BME280_humidity;BME280_pressure;Samples;Min_cycle;Max_cycle;Signal;HPM_P1;HPM_P2
2022/09/29 00:01:03;;;;;;;;;;;;;;;9.65;74.68;99273.81;1680049;84;20295;-77
2022/09/29 00:03:48;;;;;;;;;;;;;;;9.66;74.71;99272.08;1666004;84;20144;-77
2022/09/29 00:06:32;;;;;;;;;;;;;;;9.66;74.72;99274.20;1687025;84;20197;-78
2022/09/29 00:09:17;;;;;;;;;;;;;;;9.66;74.72;99279.38;1671442;84;20200;-78
2022/09/29 00:12:02;;;;;;;;;;;;;;;9.66;74.78;99278.53;1676700;84;20202;-78
2022/09/29 00:14:46;;;;;;;;;;;;;;;9.64;74.71;99285.03;1670039;84;20440;-78
2022/09/29 00:17:31;;;;;;;;;;;;;;;9.62;74.74;99288.11;1667323;84;20492;-78
2022/09/29 00:20:16;;;;;;;;;;;;;;;9.59;74.74;99282.60;1693577;84;20185;-78
2022/09/29 00:23:01;;;;;;;;;;;;;;;9.60;74.80;99288.61;1667813;84;20182;-78
2022/09/29 00:25:45;;;;;;;;;;;;;;;9.59;74.81;99285.19;1657727;84;20477;-78
2022/09/29 00:28:31;;;;;;;;;;;;;;;9.58;74.78;99284.79;1673902;84;20197;-78
2022/09/29 00:31:16;;;;;;;;;;;;;;;9.57;74.85;99291.29;1671626;84;20196;-78
2022/09/29 00:34:00;;;;;;;;;;;;;;;9.55;74.83;99287.47;1690139;84;20182;-78
2022/09/29 00:36:45;;;;;;;;;;;;;;;9.54;74.84;99289.66;1658877;84;20201;-78
2022/09/29 00:39:31;;;;;;;;;;;;;;;9.56;74.85;99292.18;1688282;84;20189;-77
2022/09/29 00:42:18;;;;;;;;;;;;;;;9.54;74.84;99290.10;1676630;84;20631;-77
2022/09/29 00:45:21;;;;;;;;;;;;;;;9.54;74.84;99292.68;1672426;84;20346;-77
2022/09/29 00:48:09;;;;;;;;;;;;;;;9.49;74.81;99287.67;1662011;84;20201;-77
2022/09/29 00:50:56;;;;;;;;;;;;;;;9.46;74.79;99292.09;1676992;84;20447;-77
2022/09/29 00:53:41;;;;;;;;;;;;;;;9.40;74.81;99293.58;1686026;84;20511;-77
2022/09/29 00:56:27;;;;;;;;;;;;;;;9.36;74.87;99295.41;1655979;84;21061;-77
2022/09/29 00:59:14;;;;;;;;;;;;;;;9.34;74.84;99295.09;1681038;84;20218;-77
2022/09/29 01:01:59;;;;;;;;;;;;;;;9.29;74.84;99299.95;1668590;84;20201;-77
2022/09/29 01:04:45;;;;;;;;;;;;;;;9.26;74.85;99292.31;1678348;84;20107;-77
2022/09/29 01:07:32;;;;;;;;;;;;;;;9.25;74.90;99297.06;1676836;84;20132;-77
2022/09/29 01:10:17;;;;;;;;;;;;;;;9.21;74.85;99299.80;1682488;84;20109;-77
2022/09/29 01:13:01;;;;;;;;;;;;;;;9.19;74.86;99296.42;1656207;84;20125;-77
2022/09/29 01:15:46;;;;;;;;;;;;;;;9.16;74.82;99305.54;1678239;84;20116;-77
2022/09/29 01:18:31;;;;;;;;;;;;;;;9.11;74.87;99301.81;1662427;84;20103;-77
2022/09/29 01:21:22;;;;;;;;;;;;;;;9.07;74.88;99309.24;1653766;85;20105;-77
2022/09/29 01:24:09;;;;;;;;;;;;;;;9.03;74.91;99302.49;1672325;84;20414;-77
2022/09/29 01:27:32;;;;;;;;;;;;;;;9.01;74.88;99309.88;1671061;84;20110;-78
2022/09/29 01:30:23;;;;;;;;;;;;;;;9.00;74.90;99310.32;1696243;84;20138;-78
2022/09/29 01:33:17;;;;;;;;;;;;;;;8.97;74.95;99318.15;1682638;84;20214;-78
2022/09/29 01:36:30;;;;;;;;;;;;;;;8.95;74.94;99314.33;1671536;84;20591;-78
2022/09/29 01:39:24;;;;;;;;;;;;;;;8.93;74.95;99316.11;1664364;84;20664;-77
2022/09/29 01:42:21;;;;;;;;;;;;;;;8.91;74.94;99324.33;1671273;84;20179;-77
2022/09/29 01:45:11;;;;;;;;;;;;;;;8.91;75.01;99323.48;1671710;84;20226;-77
2022/09/29 01:47:59;;;;;;;;;;;;;;;8.91;75.04;99328.64;1660134;84;20140;-77
2022/09/29 01:50:46;;;;;;;;;;;;;;;8.91;75.05;99328.64;1698541;84;20214;-77
2022/09/29 01:53:37;;;;;;;;;;;;;;;8.92;75.07;99329.88;1673732;84;20564;-77
2022/09/29 01:56:28;;;;;;;;;;;;;;;8.94;75.10;99328.11;1651288;84;20539;-77
2022/09/29 01:59:20;;;;;;;;;;;;;;;8.95;75.13;99334.11;1687431;84;20187;-77
2022/09/29 02:02:08;;;;;;;;;;;;;;;8.94;75.10;99333.27;1656478;84;20576;-77
2022/09/29 02:04:57;;;;;;;;;;;;;;;8.96;75.13;99337.09;1660323;84;20236;-77
2022/09/29 02:07:43;;;;;;;;;;;;;;;8.95;75.17;99334.95;1694054;84;20126;-77
2022/09/29 02:10:30;;;;;;;;;;;;;;;8.94;75.10;99341.00;1686076;84;20190;-78
2022/09/29 02:13:16;;;;;;;;;;;;;;;8.93;75.21;99335.88;1667373;84;20187;-78
2022/09/29 02:16:02;;;;;;;;;;;;;;;8.93;75.22;99335.44;1686124;84;20185;-78
2022/09/29 02:18:56;;;;;;;;;;;;;;;8.95;75.24;99332.81;1675303;84;20205;-78
2022/09/29 02:21:40;;;;;;;;;;;;;;;8.96;75.25;99343.09;1668045;84;20654;-78
2022/09/29 02:24:25;;;;;;;;;;;;;;;8.95;75.27;99338.82;1661383;84;20469;-78
2022/09/29 02:27:11;;;;;;;;;;;;;;;8.94;75.29;99341.00;1684153;84;20224;-78
2022/09/29 02:29:58;;;;;;;;;;;;;;;8.96;75.37;99346.11;1672744;84;20177;-78
2022/09/29 02:32:43;;;;;;;;;;;;;;;8.98;75.45;99348.20;1662561;84;20164;-78
2022/09/29 02:35:34;;;;;;;;;;;;;;;8.97;75.38;99350.38;1682923;84;20673;-78
2022/09/29 02:38:44;;;;;;;;;;;;;;;8.96;75.39;99355.13;1683823;84;20221;-77
2022/09/29 02:41:44;;;;;;;;;;;;;;;8.97;75.43;99359.39;1671422;84;20192;-77
2022/09/29 02:44:41;;;;;;;;;;;;;;;8.98;75.42;99361.09;1661062;82;20545;-77
2022/09/29 02:47:35;;;;;;;;;;;;;;;9.02;75.46;99367.00;1654199;84;20189;-77
2022/09/29 02:50:32;;;;;;;;;;;;;;;9.02;75.45;99363.13;1650207;84;20615;-77
2022/09/29 02:53:46;;;;;;;;;;;;;;;9.02;75.47;99365.71;1606320;87;20203;-77
2022/09/29 02:56:54;;;;;;;;;;;;;;;9.00;75.53;99367.05;1593178;87;20196;-77
2022/09/29 03:00:10;;;;;;;;;;;;;;;9.03;75.58;99358.38;1611132;87;20246;-77
2022/09/29 03:02:52;;;;;;;;;;;;;;;9.06;75.59;99362.15;1599015;88;20459;-77
2022/09/29 03:05:36;;;;;;;;;;;;;;;9.07;75.57;99365.12;1651820;86;20524;-77
2022/09/29 03:08:21;;;;;;;;;;;;;;;9.05;75.54;99365.62;1627784;86;20247;-77
2022/09/29 03:11:05;;;;;;;;;;;;;;;9.05;75.62;99366.47;1643761;86;20174;-78
2022/09/29 03:13:50;;;;;;;;;;;;;;;9.04;75.53;99371.22;1632592;86;20352;-78
2022/09/29 03:16:35;;;;;;;;;;;;;;;9.03;75.51;99373.40;1626384;86;20219;-78
2022/09/29 03:19:20;;;;;;;;;;;;;;;9.05;75.52;99378.51;1632535;86;20563;-78
2022/09/29 03:22:05;;;;;;;;;;;;;;;9.05;75.57;99375.48;1633192;85;20202;-78
2022/09/29 03:24:50;;;;;;;;;;;;;;;9.07;75.55;99379.31;1637131;86;20174;-78
2022/09/29 03:27:37;;;;;;;;;;;;;;;9.08;75.58;99385.71;1650126;86;20648;-78
2022/09/29 03:30:22;;;;;;;;;;;;;;;9.10;75.64;99389.09;1650942;84;20370;-79
2022/09/29 03:33:07;;;;;;;;;;;;;;;9.11;75.66;99390.78;1621502;86;20356;-78
2022/09/29 03:35:51;;;;;;;;;;;;;;;9.12;75.66;99396.78;1642685;86;20603;-78
2022/09/29 03:38:36;;;;;;;;;;;;;;;9.11;75.71;99392.52;1646477;86;20277;-77
2022/09/29 03:41:20;;;;;;;;;;;;;;;9.11;75.69;99399.80;1657923;86;20505;-77
2022/09/29 03:44:06;;;;;;;;;;;;;;;9.12;75.72;99400.65;1642614;86;37094;-77
2022/09/29 03:46:51;;;;;;;;;;;;;;;9.14;75.74;99401.45;1632746;86;20420;-77
2022/09/29 03:49:36;;;;;;;;;;;;;;;9.16;75.72;99406.12;1644258;85;20206;-77
2022/09/29 03:52:20;;;;;;;;;;;;;;;9.17;75.74;99409.09;1648376;85;20226;-77
2022/09/29 03:55:06;;;;;;;;;;;;;;;9.18;75.75;99412.92;1665609;84;20188;-77
2022/09/29 03:57:50;;;;;;;;;;;;;;;9.18;75.75;99412.92;1614822;86;20712;-77
2022/09/29 04:00:35;;;;;;;;;;;;;;;9.19;75.81;99418.48;1619149;86;20243;-77
2022/09/29 04:03:20;;;;;;;;;;;;;;;9.20;75.80;99418.88;1628246;86;20241;-78
2022/09/29 04:06:05;;;;;;;;;;;;;;;9.21;75.80;99427.02;1625240;86;20516;-77
2022/09/29 04:08:50;;;;;;;;;;;;;;;9.24;75.80;99430.80;1622880;86;20150;-77
2022/09/29 04:11:34;;;;;;;;;;;;;;;9.24;75.80;99433.38;1630518;86;20332;-77
2022/09/29 04:14:19;;;;;;;;;;;;;;;9.26;75.81;99435.91;1616623;85;20228;-77
2022/09/29 04:17:04;;;;;;;;;;;;;;;9.27;75.79;99442.31;1621786;86;20166;-77
2022/09/29 04:19:49;;;;;;;;;;;;;;;9.27;75.79;99447.47;1623896;86;20210;-78
2022/09/29 04:22:33;;;;;;;;;;;;;;;9.27;75.79;99451.34;1622696;86;20290;-80
2022/09/29 04:25:18;;;;;;;;;;;;;;;9.28;75.77;99452.19;1592394;86;579880;-79
2022/09/29 04:28:02;;;;;;;;;;;;;;;9.28;75.81;99453.03;1599073;88;20136;-79
2022/09/29 04:30:46;;;;;;;;;;;;;;;9.27;75.83;99460.37;1616849;87;20134;-80
2022/09/29 04:33:31;;;;;;;;;;;;;;;9.27;75.85;99460.37;1617840;87;20118;-79
2022/09/29 04:36:15;;;;;;;;;;;;;;;9.27;75.86;99458.23;1619072;87;20418;-79
2022/09/29 04:38:59;;;;;;;;;;;;;;;9.27;75.86;99463.39;1629464;86;20164;-79
2022/09/29 04:41:44;;;;;;;;;;;;;;;9.26;75.89;99466.86;1623852;86;20456;-79
2022/09/29 04:44:29;;;;;;;;;;;;;;;9.25;75.87;99471.62;1623701;86;20181;-79
2022/09/29 04:47:13;;;;;;;;;;;;;;;9.25;75.88;99476.33;1597440;88;20145;-79
2022/09/29 04:49:57;;;;;;;;;;;;;;;9.25;75.90;99481.94;1584510;88;20456;-79
2022/09/29 04:52:42;;;;;;;;;;;;;;;9.25;75.92;99480.64;1594951;88;20447;-79
2022/09/29 04:55:27;;;;;;;;;;;;;;;9.25;75.95;99479.36;1592853;88;20144;-79
2022/09/29 04:58:13;;;;;;;;;;;;;;;9.22;75.97;99477.71;1591318;88;20184;-79
2022/09/29 05:01:06;;;;;;;;;;;;;;;9.23;75.99;99477.27;1590433;88;20151;-79
2022/09/29 05:03:52;;;;;;;;;;;;;;;9.21;75.98;99481.17;1591376;88;20379;-79
2022/09/29 05:06:39;;;;;;;;;;;;;;;9.20;76.02;99482.06;1599569;88;20562;-79
2022/09/29 05:09:24;;;;;;;;;;;;;;;9.19;76.00;99485.53;1596360;88;20188;-79
2022/09/29 05:12:08;;;;;;;;;;;;;;;9.19;76.04;99488.56;1581310;88;20670;-79
2022/09/29 05:14:53;;;;;;;;;;;;;;;9.20;76.06;99488.95;1596264;88;20212;-79
2022/09/29 05:17:38;;;;;;;;;;;;;;;9.20;76.03;99489.80;1586775;88;20320;-79
2022/09/29 05:20:22;;;;;;;;;;;;;;;9.21;76.06;99486.78;1588577;88;20217;-79
2022/09/29 05:23:08;;;;;;;;;;;;;;;9.21;76.01;99488.91;1586395;88;20204;-79
2022/09/29 05:25:53;;;;;;;;;;;;;;;9.19;76.01;99491.98;1586381;90;20487;-79
2022/09/29 05:28:40;;;;;;;;;;;;;;;9.21;76.08;99495.36;1577207;88;20495;-79
2022/09/29 05:31:25;;;;;;;;;;;;;;;9.23;76.07;99494.88;1581407;88;20243;-79
2022/09/29 05:34:10;;;;;;;;;;;;;;;9.21;76.03;99500.52;1586483;88;20355;-79
2022/09/29 05:36:55;;;;;;;;;;;;;;;9.23;76.05;99503.91;1590443;88;20183;-79
2022/09/29 05:39:40;;;;;;;;;;;;;;;9.25;76.05;99508.58;1591102;88;20550;-78
2022/09/29 05:42:26;;;;;;;;;;;;;;;9.26;76.10;99504.27;1573490;88;20186;-79
2022/09/29 05:45:11;;;;;;;;;;;;;;;9.26;76.10;99511.55;1569893;88;304775;-79
2022/09/29 05:47:56;;;;;;;;;;;;;;;9.28;76.08;99511.52;1603512;87;20436;-81
2022/09/29 05:50:42;;;;;;;;;;;;;;;9.31;76.12;99513.16;1615018;87;20172;-81
2022/09/29 05:53:26;;;;;;;;;;;;;;;9.34;76.13;99518.23;1598057;88;20113;-81
2022/09/29 05:56:18;;;;;;;;;;;;;;;9.36;76.15;99513.87;1612460;87;20486;-81
2022/09/29 05:59:03;;;;;;;;;;;;;;;9.39;76.15;99517.62;1615939;87;20183;-81
2022/09/29 06:01:47;;;;;;;;;;;;;;;9.40;76.14;99517.58;1604891;87;20158;-81
2022/09/29 06:04:32;;;;;;;;;;;;;;;9.43;76.15;99525.68;1622351;86;20225;-78
2022/09/29 06:07:17;;;;;;;;;;;;;;;9.45;76.19;99523.90;1615648;87;20180;-77
2022/09/29 06:10:03;;;;;;;;;;;;;;;9.47;76.20;99522.97;1611574;86;20608;-78
2022/09/29 06:12:48;;;;;;;;;;;;;;;9.52;76.17;99521.55;1637955;86;20186;-77
2022/09/29 06:15:32;;;;;;;;;;;;;;;9.56;76.16;99519.28;1626718;87;20248;-77
2022/09/29 06:18:17;;;;;;;;;;;;;;;9.59;76.16;99520.03;1630176;86;20441;-77
2022/09/29 06:21:08;;;;;;;;;;;;;;;9.63;76.16;99516.92;1593617;88;20239;-77
2022/09/29 06:23:54;;;;;;;;;;;;;;;9.66;76.13;99521.98;1586055;88;20114;-77
2022/09/29 06:26:39;;;;;;;;;;;;;;;9.66;76.10;99523.28;1596305;88;20178;-76
2022/09/29 06:29:23;;;;;;;;;;;;;;;9.70;76.21;99526.61;1594751;88;20148;-76
2022/09/29 06:32:08;;;;;;;;;;;;;;;9.67;76.03;99523.68;1594507;88;20183;-76
2022/09/29 06:37:56;;;;;;;;;;;;;;;9.69;76.03;99526.22;1620031;86;20148;-77
2022/09/29 06:40:40;;;;;;;;;;;;;;;9.76;76.02;99523.41;1641490;86;20156;-76
2022/09/29 06:43:25;;;;;;;;;;;;;;;9.88;76.02;99526.03;1616149;86;20112;-76
2022/09/29 06:46:10;;;;;;;;;;;;;;;10.09;76.07;99520.66;1589864;88;20140;-77
2022/09/29 06:48:55;;;;;;;;;;;;;;;10.33;76.06;99524.23;1598305;87;20138;-77
2022/09/29 06:51:40;;;;;;;;;;;;;;;10.48;75.98;99526.28;1564074;90;20293;-77
2022/09/29 06:54:24;;;;;;;;;;;;;;;10.76;76.24;99518.00;1600318;88;20218;-77
2022/09/29 06:57:09;;;;;;;;;;;;;;;11.64;76.45;99520.84;1585644;88;20151;-77
2022/09/29 06:59:54;;;;;;;;;;;;;;;12.36;75.68;99517.57;1591516;88;20713;-77
2022/09/29 07:02:38;;;;;;;;;;;;;;;12.74;75.27;99521.98;1587526;88;20295;-77
2022/09/29 07:05:23;;;;;;;;;;;;;;;12.80;75.16;99523.02;1593682;88;20186;-78
2022/09/29 07:08:08;;;;;;;;;;;;;;;12.72;75.08;99523.80;1586748;88;20200;-78
2022/09/29 07:10:52;;;;;;;;;;;;;;;12.65;75.25;99526.27;1596263;88;20647;-78
2022/09/29 07:13:37;;;;;;;;;;;;;;;12.60;75.35;99528.20;1582019;88;20222;-77
2022/09/29 07:16:22;;;;;;;;;;;;;;;12.51;75.36;99526.83;1594094;88;20188;-77
2022/09/29 07:19:07;;;;;;;;;;;;;;;12.42;75.35;99528.98;1586152;88;20210;-77
2022/09/29 07:21:51;;;;;;;;;;;;;;;12.62;75.82;99538.06;1591614;88;20235;-78
2022/09/29 07:24:36;;;;;;;;;;;;;;;13.17;75.20;99534.42;1593472;88;20273;-77
2022/09/29 07:27:23;;;;;;;;;;;;;;;13.06;75.17;99536.16;1591099;87;20262;-77
2022/09/29 07:30:08;;;;;;;;;;;;;;;12.92;75.16;99537.23;1586591;88;20198;-76
2022/09/29 07:32:56;;;;;;;;;;;;;;;12.83;75.15;99537.16;1589232;88;20918;-76
2022/09/29 07:35:41;;;;;;;;;;;;;;;12.80;75.19;99540.34;1595363;88;20460;-76
2022/09/29 07:38:26;;;;;;;;;;;;;;;12.75;75.37;99539.69;1591513;88;20148;-75
2022/09/29 07:41:12;;;;;;;;;;;;;;;12.99;75.12;99543.84;1593006;88;20146;-75
2022/09/29 07:43:57;;;;;;;;;;;;;;;12.96;74.92;99543.13;1606037;88;20115;-75
2022/09/29 07:46:41;;;;;;;;;;;;;;;12.84;74.94;99549.23;1599113;87;20451;-75
2022/09/29 07:49:26;;;;;;;;;;;;;;;12.89;75.26;99550.33;1617805;86;20136;-75
2022/09/29 07:52:12;;;;;;;;;;;;;;;13.24;75.18;99560.50;1611079;87;20134;-75
2022/09/29 07:54:57;;;;;;;;;;;;;;;13.27;74.88;99564.27;1625484;87;20112;-75
2022/09/29 07:57:41;;;;;;;;;;;;;;;13.84;75.01;99565.98;1625563;86;20120;-75
2022/09/29 08:00:26;;;;;;;;;;;;;;;13.80;74.44;99565.73;1629156;87;20109;-75
2022/09/29 08:03:11;;;;;;;;;;;;;;;13.69;74.50;99569.27;1617472;87;20133;-76
2022/09/29 08:05:56;;;;;;;;;;;;;;;13.65;74.52;99572.92;1619051;87;20827;-76
2022/09/29 08:08:41;;;;;;;;;;;;;;;13.53;74.48;99576.07;1618851;87;20101;-76
2022/09/29 08:11:26;;;;;;;;;;;;;;;13.44;74.41;99576.51;1614982;87;20178;-75
2022/09/29 08:14:11;;;;;;;;;;;;;;;13.32;74.49;99577.05;1615859;87;20182;-75
2022/09/29 08:16:56;;;;;;;;;;;;;;;13.22;74.51;99582.64;1603918;87;20231;-75
2022/09/29 08:19:40;;;;;;;;;;;;;;;13.12;74.42;99587.80;1613476;87;20511;-75
2022/09/29 08:22:25;;;;;;;;;;;;;;;13.03;74.48;99589.48;1628351;87;20185;-75
2022/09/29 08:25:10;;;;;;;;;;;;;;;12.93;74.48;99594.70;1612896;87;20187;-75
2022/09/29 08:27:54;;;;;;;;;;;;;;;12.84;74.52;99592.48;1616647;87;20243;-75
2022/09/29 08:30:39;;;;;;;;;;;;;;;12.75;74.44;99593.71;1603748;87;20228;-75
2022/09/29 08:33:24;;;;;;;;;;;;;;;12.63;74.37;99594.66;1619025;87;20153;-75
2022/09/29 08:36:15;;;;;;;;;;;;;;;12.49;74.34;99596.06;1625290;87;20202;-75
2022/09/29 08:38:59;;;;;;;;;;;;;;;12.38;74.37;99598.27;1595269;87;20214;-75
2022/09/29 08:42:05;;;;;;;;;;;;;;;12.24;74.30;99601.39;1624520;86;20203;-75
2022/09/29 08:44:59;;;;;;;;;;;;;;;12.10;74.30;99595.06;1638921;86;20125;-76
2022/09/29 08:47:46;;;;;;;;;;;;;;;12.02;74.35;99597.94;1621797;88;20188;-75
2022/09/29 08:50:34;;;;;;;;;;;;;;;11.99;74.43;99603.23;1606325;88;20574;-75
2022/09/29 08:53:20;;;;;;;;;;;;;;;11.99;74.37;99608.88;1617587;88;20329;-75
2022/09/29 08:56:12;;;;;;;;;;;;;;;12.02;74.35;99612.64;1602143;87;20510;-75
2022/09/29 08:58:57;;;;;;;;;;;;;;;12.05;74.25;99618.55;1610296;87;20132;-75
2022/09/29 09:02:14;;;;;;;;;;;;;;;12.10;74.25;99619.67;1604762;87;20631;-75
2022/09/29 09:05:19;;;;;;;;;;;;;;;12.18;74.29;99614.59;1600603;87;20200;-75
2022/09/29 09:08:32;;;;;;;;;;;;;;;12.30;74.20;99615.02;1625225;87;20133;-75
2022/09/29 09:11:37;;;;;;;;;;;;;;;12.39;74.09;99620.70;1603394;87;20215;-75
2022/09/29 09:14:44;;;;;;;;;;;;;;;12.42;73.98;99624.47;1618152;87;20145;-76
2022/09/29 09:17:38;;;;;;;;;;;;;;;12.43;73.97;99622.72;1579648;89;20239;-75
2022/09/29 09:20:35;;;;;;;;;;;;;;;12.38;73.87;99624.64;1584425;88;20372;-75
2022/09/29 09:23:23;;;;;;;;;;;;;;;12.41;74.00;99626.66;1590149;89;20227;-75
2022/09/29 09:26:09;;;;;;;;;;;;;;;12.49;73.94;99628.92;1577985;89;20280;-75
2022/09/29 09:29:00;;;;;;;;;;;;;;;12.55;73.97;99639.05;1591829;88;20204;-75
2022/09/29 09:31:52;;;;;;;;;;;;;;;12.55;73.93;99636.02;1578402;89;20369;-75
2022/09/29 09:34:49;;;;;;;;;;;;;;;12.58;73.74;99643.67;1590285;89;20207;-75
2022/09/29 09:37:38;;;;;;;;;;;;;;;12.49;73.66;99641.44;1574953;87;20617;-75
2022/09/29 09:40:25;;;;;;;;;;;;;;;12.44;73.75;99651.17;1576669;88;20208;-74
2022/09/29 09:43:26;;;;;;;;;;;;;;;12.44;73.78;99656.81;1584117;89;20240;-74
2022/09/29 09:46:26;;;;;;;;;;;;;;;12.45;73.74;99655.45;1579472;89;20188;-76
2022/09/29 09:49:26;;;;;;;;;;;;;;;12.56;73.90;99659.73;1609849;87;20223;-75
2022/09/29 09:52:40;;;;;;;;;;;;;;;12.70;73.91;99662.24;1620466;87;20482;-75
2022/09/29 09:55:25;;;;;;;;;;;;;;;12.83;73.73;99658.26;1601657;87;20541;-75
2022/09/29 09:58:38;;;;;;;;;;;;;;;12.92;73.69;99669.56;1625297;87;20505;-75
2022/09/29 10:01:22;;;;;;;;;;;;;;;12.94;73.33;99663.86;1608867;87;20840;-75
2022/09/29 10:04:11;;;;;;;;;;;;;;;12.97;73.52;99674.56;1621330;87;20209;-75
2022/09/29 10:06:56;;;;;;;;;;;;;;;13.09;73.55;99668.84;1617466;87;20140;-75
2022/09/29 10:09:41;;;;;;;;;;;;;;;13.14;73.29;99676.83;1605572;86;20183;-75
2022/09/29 10:12:25;;;;;;;;;;;;;;;13.10;73.14;99670.08;1606933;87;20197;-75
2022/09/29 10:15:25;;;;;;;;;;;;;;;13.05;73.17;99677.20;1614064;87;20192;-75
2022/09/29 10:18:16;;;;;;;;;;;;;;;13.06;73.27;99675.00;1606338;87;20240;-75
2022/09/29 10:21:01;;;;;;;;;;;;;;;13.06;73.19;99675.45;1617502;87;20210;-75
2022/09/29 10:23:53;;;;;;;;;;;;;;;13.06;73.16;99676.75;1610927;87;20238;-75
2022/09/29 10:26:42;;;;;;;;;;;;;;;13.09;73.07;99675.33;1621362;87;20227;-76
2022/09/29 10:29:39;;;;;;;;;;;;;;;13.17;73.16;99679.33;1616601;87;20182;-75
2022/09/29 10:32:35;;;;;;;;;;;;;;;13.23;73.13;99681.67;1631439;87;20190;-75
2022/09/29 10:35:25;;;;;;;;;;;;;;;13.31;73.12;99681.35;1603058;87;20168;-75
2022/09/29 10:38:24;;;;;;;;;;;;;;;13.36;73.02;99688.95;1616200;87;20208;-75
2022/09/29 10:41:08;;;;;;;;;;;;;;;13.41;72.89;99683.11;1616448;87;20497;-74
2022/09/29 10:43:53;;;;;;;;;;;;;;;13.43;72.75;99682.14;1623662;87;20188;-74
2022/09/29 10:46:47;;;;;;;;;;;;;;;13.47;72.66;99688.05;1623433;87;20490;-74
2022/09/29 10:49:32;;;;;;;;;;;;;;;13.48;72.77;99688.44;1588574;87;20553;-74
2022/09/29 10:52:25;;;;;;;;;;;;;;;13.44;72.70;99690.31;1593438;87;20485;-74
2022/09/29 10:55:16;;;;;;;;;;;;;;;13.42;72.74;99684.80;1623590;87;20467;-75
2022/09/29 10:58:04;;;;;;;;;;;;;;;13.43;72.58;99688.63;1618436;84;20223;-75
2022/09/29 11:00:48;;;;;;;;;;;;;;;13.39;72.40;99688.37;1612289;87;20743;-75
2022/09/29 11:03:35;;;;;;;;;;;;;;;13.34;72.60;99691.61;1611301;87;20531;-75
2022/09/29 11:06:33;;;;;;;;;;;;;;;13.35;72.78;99693.30;1616879;87;20193;-75
2022/09/29 11:09:26;;;;;;;;;;;;;;;13.34;72.06;99695.51;1619235;86;20204;-75
2022/09/29 11:12:32;;;;;;;;;;;;;;;13.30;72.50;99709.98;1612557;87;20191;-75
2022/09/29 11:15:27;;;;;;;;;;;;;;;13.27;72.33;99703.16;1610288;87;20195;-75
2022/09/29 11:18:24;;;;;;;;;;;;;;;13.16;72.21;99702.76;1621419;87;20272;-75
2022/09/29 11:21:43;;;;;;;;;;;;;;;13.00;72.14;99706.39;1617824;87;20485;-75
2022/09/29 11:24:49;;;;;;;;;;;;;;;12.95;72.22;99709.66;1610864;87;20210;-75
2022/09/29 11:27:55;;;;;;;;;;;;;;;12.97;72.30;99714.33;1583815;87;20511;-75
2022/09/29 11:31:02;;;;;;;;;;;;;;;13.05;72.57;99716.14;1608484;87;20209;-75
2022/09/29 11:34:08;;;;;;;;;;;;;;;13.14;72.31;99718.81;1612462;87;20168;-75
2022/09/29 11:37:01;;;;;;;;;;;;;;;13.21;71.92;99717.69;1603320;87;20219;-77
2022/09/29 11:39:53;;;;;;;;;;;;;;;13.24;72.10;99720.16;1611025;87;20228;-76
2022/09/29 11:43:04;;;;;;;;;;;;;;;13.25;72.05;99721.85;1612759;85;20251;-76
2022/09/29 11:45:52;;;;;;;;;;;;;;;13.21;71.89;99730.22;1608873;86;20599;-76
2022/09/29 11:48:53;;;;;;;;;;;;;;;13.13;71.71;99734.84;1618129;87;20487;-76
2022/09/29 11:51:53;;;;;;;;;;;;;;;13.00;71.72;99731.53;1614051;87;20211;-75
2022/09/29 11:54:47;;;;;;;;;;;;;;;12.94;71.94;99730.02;1608650;87;20189;-75
2022/09/29 11:57:41;;;;;;;;;;;;;;;12.86;71.68;99735.97;1605167;87;20519;-75
2022/09/29 12:01:00;;;;;;;;;;;;;;;12.83;71.94;99736.09;1625390;87;20140;-76
2022/09/29 12:04:02;;;;;;;;;;;;;;;12.77;71.77;99738.92;1635404;86;20627;-75
2022/09/29 12:06:56;;;;;;;;;;;;;;;12.73;71.37;99739.48;1597644;88;20498;-79
2022/09/29 12:09:53;;;;;;;;;;;;;;;12.77;71.91;99738.92;1633770;86;20227;-78
2022/09/29 12:13:01;;;;;;;;;;;;;;;12.89;71.60;99741.03;1627861;85;20279;-78
2022/09/29 12:15:58;;;;;;;;;;;;;;;12.97;71.68;99744.17;1617815;86;20239;-79
2022/09/29 12:18:55;;;;;;;;;;;;;;;13.06;71.50;99733.39;1610158;87;20172;-79
2022/09/29 12:21:49;;;;;;;;;;;;;;;13.15;71.63;99739.52;1632358;86;20244;-78
2022/09/29 12:24:42;;;;;;;;;;;;;;;13.20;71.62;99748.45;1613155;87;20161;-78
2022/09/29 12:27:39;;;;;;;;;;;;;;;13.22;71.59;99746.19;1612698;87;20209;-78
2022/09/29 12:30:29;;;;;;;;;;;;;;;13.23;71.52;99738.78;1606510;87;20199;-78
2022/09/29 12:33:24;;;;;;;;;;;;;;;13.25;71.45;99746.06;1609558;87;20133;-79
2022/09/29 12:36:52;;;;;;;;;;;;;;;13.24;70.58;99746.97;1606869;87;20228;-79
2022/09/29 12:39:53;;;;;;;;;;;;;;;13.20;71.21;99748.45;1608793;86;20175;-78
2022/09/29 12:43:07;;;;;;;;;;;;;;;13.19;71.34;99747.61;1610613;87;20230;-78
2022/09/29 12:46:09;;;;;;;;;;;;;;;13.22;70.81;99752.67;1609528;85;20468;-75
2022/09/29 12:49:01;;;;;;;;;;;;;;;13.21;71.23;99756.17;1613804;86;20203;-75
2022/09/29 12:51:50;;;;;;;;;;;;;;;13.24;71.10;99752.16;1605225;87;20207;-75
2022/09/29 12:54:50;;;;;;;;;;;;;;;13.25;70.93;99759.49;1609970;87;20236;-75
2022/09/29 12:57:38;;;;;;;;;;;;;;;13.24;71.10;99763.00;1612858;87;20481;-75
2022/09/29 13:00:24;;;;;;;;;;;;;;;13.22;70.88;99758.32;1609068;87;20253;-75
2022/09/29 13:03:30;;;;;;;;;;;;;;;13.13;70.83;99763.39;1612771;87;20230;-75
2022/09/29 13:06:30;;;;;;;;;;;;;;;13.08;70.80;99757.99;1621479;86;20343;-75
2022/09/29 13:09:35;;;;;;;;;;;;;;;13.05;70.88;99760.71;1609100;87;20422;-75
2022/09/29 13:12:46;;;;;;;;;;;;;;;13.04;70.94;99766.35;1615325;87;20199;-75
2022/09/29 13:15:37;;;;;;;;;;;;;;;13.03;70.83;99761.22;1609787;87;20253;-76
2022/09/29 13:18:38;;;;;;;;;;;;;;;13.01;70.90;99768.22;1618741;87;20481;-76
2022/09/29 13:21:29;;;;;;;;;;;;;;;13.00;70.86;99763.48;1615452;86;20226;-76
2022/09/29 13:24:29;;;;;;;;;;;;;;;13.00;70.86;99760.89;1606715;87;20511;-76
2022/09/29 13:27:17;;;;;;;;;;;;;;;13.03;70.65;99764.66;1603631;87;20524;-76
2022/09/29 13:30:17;;;;;;;;;;;;;;;13.02;70.44;99768.62;1613025;87;20221;-76
2022/09/29 13:33:11;;;;;;;;;;;;;;;13.07;70.60;99766.23;1609245;87;20188;-76
2022/09/29 13:35:56;;;;;;;;;;;;;;;13.13;70.64;99764.69;1618630;87;20206;-76
2022/09/29 13:38:43;;;;;;;;;;;;;;;13.20;70.48;99769.22;1613810;86;20210;-76
2022/09/29 13:41:34;;;;;;;;;;;;;;;13.21;70.25;99761.83;1601575;87;20200;-76
2022/09/29 13:44:24;;;;;;;;;;;;;;;13.21;70.28;99765.72;1609551;87;20218;-76
2022/09/29 13:47:31;;;;;;;;;;;;;;;13.22;70.17;99768.70;1621618;87;20185;-76
2022/09/29 13:50:45;;;;;;;;;;;;;;;13.21;70.10;99763.97;1620562;87;20176;-76
2022/09/29 13:53:36;;;;;;;;;;;;;;;13.18;70.16;99764.54;1612376;87;20626;-76
2022/09/29 13:56:20;;;;;;;;;;;;;;;13.19;70.23;99764.48;1616253;87;20192;-76
2022/09/29 13:59:17;;;;;;;;;;;;;;;13.20;70.22;99763.58;1613636;87;20264;-75
2022/09/29 14:02:22;;;;;;;;;;;;;;;13.21;70.24;99763.97;1607013;87;20247;-75
2022/09/29 14:05:26;;;;;;;;;;;;;;;13.24;70.28;99769.48;1611185;87;20235;-76
2022/09/29 14:08:17;;;;;;;;;;;;;;;13.22;70.24;99770.00;1612574;87;20231;-76
2022/09/29 14:11:20;;;;;;;;;;;;;;;13.20;70.19;99772.66;1611464;87;20193;-75
2022/09/29 14:14:14;;;;;;;;;;;;;;;13.19;70.03;99778.75;1617086;85;21053;-76
2022/09/29 14:17:35;;;;;;;;;;;;;;;13.17;69.95;99779.72;1615149;87;20271;-75
2022/09/29 14:20:28;;;;;;;;;;;;;;;13.14;70.05;99791.04;1603479;87;20581;-75
2022/09/29 14:23:13;;;;;;;;;;;;;;;13.11;70.04;99794.20;1623226;87;20237;-75
2022/09/29 14:25:58;;;;;;;;;;;;;;;13.09;70.03;99796.86;1615681;87;20500;-75
2022/09/29 14:28:43;;;;;;;;;;;;;;;13.07;70.02;99799.12;1613853;87;20168;-75
2022/09/29 14:31:28;;;;;;;;;;;;;;;13.03;70.02;99798.41;1608890;86;20227;-75
2022/09/29 14:34:15;;;;;;;;;;;;;;;13.02;70.03;99798.46;1611945;87;20366;-75
2022/09/29 14:37:00;;;;;;;;;;;;;;;13.02;70.03;99800.60;1604947;87;20204;-75
2022/09/29 14:40:27;;;;;;;;;;;;;;;13.00;70.04;99803.71;1611343;87;20685;-75
2022/09/29 14:42:34;;;;;;;;;;;;;;;12.99;69.99;99800.75;1607665;87;20244;-75
2022/09/29 14:51:57;;;;;;;;;;;;;;;13.03;70.00;99811.83;1504417;87;10000910;-75
2022/09/29 14:54:54;;;;;;;;;;;;;;;13.04;69.94;99813.52;1610289;87;20536;-75
2022/09/29 14:57:45;;;;;;;;;;;;;;;13.05;69.94;99811.31;1611715;87;20217;-76
2022/09/29 15:00:34;;;;;;;;;;;;;;;13.05;70.00;99817.80;1617451;87;20195;-76